sensor_id;sensor_type;location;lat;lon;timestamp;temperature;humidity
47350;DHT22;33088;51.982;5.872;2022-08-11T00:00:06;21.80;92.90
47350;DHT22;33088;51.982;5.872;2022-08-11T00:02:47;21.80;93.00
47350;DHT22;33088;51.982;5.872;2022-08-11T00:05:16;21.70;93.10
47350;DHT22;33088;51.982;5.872;2022-08-11T00:08:00;21.70;93.20
47350;DHT22;33088;51.982;5.872;2022-08-11T00:10:27;21.70;93.20
47350;DHT22;33088;51.982;5.872;2022-08-11T00:13:00;21.70;93.30
47350;DHT22;33088;51.982;5.872;2022-08-11T00:15:37;21.60;93.40
47350;DHT22;33088;51.982;5.872;2022-08-11T00:18:04;21.50;93.40
47350;DHT22;33088;51.982;5.872;2022-08-11T00:20:32;21.60;93.50
47350;DHT22;33088;51.982;5.872;2022-08-11T00:23:07;21.50;93.50
47350;DHT22;33088;51.982;5.872;2022-08-11T00:25:45;21.40;93.70
47350;DHT22;33088;51.982;5.872;2022-08-11T00:28:32;21.50;93.60
47350;DHT22;33088;51.982;5.872;2022-08-11T00:31:02;21.50;94.00
47350;DHT22;33088;51.982;5.872;2022-08-11T00:33:42;21.40;93.90
47350;DHT22;33088;51.982;5.872;2022-08-11T00:36:10;21.40;93.80
47350;DHT22;33088;51.982;5.872;2022-08-11T00:38:39;21.40;93.90
47350;DHT22;33088;51.982;5.872;2022-08-11T00:41:28;21.40;94.10
47350;DHT22;33088;51.982;5.872;2022-08-11T00:46:56;21.30;94.20
47350;DHT22;33088;51.982;5.872;2022-08-11T00:52:06;21.30;94.30
47350;DHT22;33088;51.982;5.872;2022-08-11T00:54:55;21.30;94.40
47350;DHT22;33088;51.982;5.872;2022-08-11T01:02:54;21.20;94.60
47350;DHT22;33088;51.982;5.872;2022-08-11T01:05:49;21.10;94.80
47350;DHT22;33088;51.982;5.872;2022-08-11T01:24:40;20.80;95.60
47350;DHT22;33088;51.982;5.872;2022-08-11T01:30:09;20.70;95.70
47350;DHT22;33088;51.982;5.872;2022-08-11T01:38:39;20.50;95.90
47350;DHT22;33088;51.982;5.872;2022-08-11T01:41:38;20.50;95.90
47350;DHT22;33088;51.982;5.872;2022-08-11T01:50:12;20.40;96.40
47350;DHT22;33088;51.982;5.872;2022-08-11T01:53:00;20.20;96.60
47350;DHT22;33088;51.982;5.872;2022-08-11T01:55:48;20.20;96.60
47350;DHT22;33088;51.982;5.872;2022-08-11T02:13:02;20.00;97.20
47350;DHT22;33088;51.982;5.872;2022-08-11T02:15:37;20.00;96.90
47350;DHT22;33088;51.982;5.872;2022-08-11T02:18:09;20.00;97.10
47350;DHT22;33088;51.982;5.872;2022-08-11T02:20:50;19.90;97.10
47350;DHT22;33088;51.982;5.872;2022-08-11T02:23:50;20.00;97.20
47350;DHT22;33088;51.982;5.872;2022-08-11T02:26:21;20.00;97.40
47350;DHT22;33088;51.982;5.872;2022-08-11T02:29:02;19.90;97.50
47350;DHT22;33088;51.982;5.872;2022-08-11T02:31:41;19.90;97.60
47350;DHT22;33088;51.982;5.872;2022-08-11T02:37:47;19.90;97.70
47350;DHT22;33088;51.982;5.872;2022-08-11T02:40:26;19.90;97.80
47350;DHT22;33088;51.982;5.872;2022-08-11T02:45:53;19.90;97.90
47350;DHT22;33088;51.982;5.872;2022-08-11T02:48:46;19.80;97.90
47350;DHT22;33088;51.982;5.872;2022-08-11T02:52:14;19.80;98.10
47350;DHT22;33088;51.982;5.872;2022-08-11T02:59:52;19.60;98.30
47350;DHT22;33088;51.982;5.872;2022-08-11T03:02:31;19.60;98.30
47350;DHT22;33088;51.982;5.872;2022-08-11T03:05:14;19.60;98.40
47350;DHT22;33088;51.982;5.872;2022-08-11T03:14:06;19.40;98.90
47350;DHT22;33088;51.982;5.872;2022-08-11T03:33:17;19.30;99.10
47350;DHT22;33088;51.982;5.872;2022-08-11T04:12:45;19.00;99.90
47350;DHT22;33088;51.982;5.872;2022-08-11T04:32:30;18.80;99.90
47350;DHT22;33088;51.982;5.872;2022-08-11T04:41:06;18.80;99.90
47350;DHT22;33088;51.982;5.872;2022-08-11T04:59:00;18.90;99.90
47350;DHT22;33088;51.982;5.872;2022-08-11T05:05:19;19.00;99.90
47350;DHT22;33088;51.982;5.872;2022-08-11T05:13:33;19.10;99.90
47350;DHT22;33088;51.982;5.872;2022-08-11T05:16:23;19.30;99.90
47350;DHT22;33088;51.982;5.872;2022-08-11T05:19:15;19.30;99.90
47350;DHT22;33088;51.982;5.872;2022-08-11T05:22:02;19.40;99.90
47350;DHT22;33088;51.982;5.872;2022-08-11T05:24:56;19.40;99.90
47350;DHT22;33088;51.982;5.872;2022-08-11T05:28:04;19.50;99.70
47350;DHT22;33088;51.982;5.872;2022-08-11T05:31:02;19.60;99.70
47350;DHT22;33088;51.982;5.872;2022-08-11T05:33:53;19.70;99.30
47350;DHT22;33088;51.982;5.872;2022-08-11T05:36:51;19.80;99.40
47350;DHT22;33088;51.982;5.872;2022-08-11T05:39:25;20.00;99.20
47350;DHT22;33088;51.982;5.872;2022-08-11T05:42:09;20.00;99.00
47350;DHT22;33088;51.982;5.872;2022-08-11T05:44:58;20.10;98.80
47350;DHT22;33088;51.982;5.872;2022-08-11T05:47:48;20.20;99.00
47350;DHT22;33088;51.982;5.872;2022-08-11T05:50:33;20.20;98.80
47350;DHT22;33088;51.982;5.872;2022-08-11T05:53:18;20.30;99.00
47350;DHT22;33088;51.982;5.872;2022-08-11T05:56:07;20.40;98.50
47350;DHT22;33088;51.982;5.872;2022-08-11T05:58:46;20.50;98.50
47350;DHT22;33088;51.982;5.872;2022-08-11T06:01:21;20.60;97.60
47350;DHT22;33088;51.982;5.872;2022-08-11T06:03:52;20.70;97.80
47350;DHT22;33088;51.982;5.872;2022-08-11T06:06:37;20.70;98.10
47350;DHT22;33088;51.982;5.872;2022-08-11T06:09:07;20.80;97.80
47350;DHT22;33088;51.982;5.872;2022-08-11T06:11:37;20.90;97.30
47350;DHT22;33088;51.982;5.872;2022-08-11T06:14:06;21.10;97.00
47350;DHT22;33088;51.982;5.872;2022-08-11T06:16:33;21.00;97.30
47350;DHT22;33088;51.982;5.872;2022-08-11T06:19:00;21.10;97.10
47350;DHT22;33088;51.982;5.872;2022-08-11T06:21:26;21.20;96.90
47350;DHT22;33088;51.982;5.872;2022-08-11T06:23:54;21.30;96.50
47350;DHT22;33088;51.982;5.872;2022-08-11T06:26:20;21.40;96.60
47350;DHT22;33088;51.982;5.872;2022-08-11T06:28:47;21.40;96.10
47350;DHT22;33088;51.982;5.872;2022-08-11T06:31:16;21.50;96.50
47350;DHT22;33088;51.982;5.872;2022-08-11T06:34:14;21.70;96.10
47350;DHT22;33088;51.982;5.872;2022-08-11T06:36:56;21.60;95.80
47350;DHT22;33088;51.982;5.872;2022-08-11T06:39:27;21.70;96.20
47350;DHT22;33088;51.982;5.872;2022-08-11T06:42:15;21.80;96.30
47350;DHT22;33088;51.982;5.872;2022-08-11T06:47:46;21.80;95.60
47350;DHT22;33088;51.982;5.872;2022-08-11T06:50:18;21.90;95.90
47350;DHT22;33088;51.982;5.872;2022-08-11T06:53:05;21.90;95.90
47350;DHT22;33088;51.982;5.872;2022-08-11T06:55:34;21.90;95.70
47350;DHT22;33088;51.982;5.872;2022-08-11T06:58:38;21.90;95.90
47350;DHT22;33088;51.982;5.872;2022-08-11T07:01:36;21.90;95.70
47350;DHT22;33088;51.982;5.872;2022-08-11T07:04:11;21.90;95.90
47350;DHT22;33088;51.982;5.872;2022-08-11T07:07:00;22.00;96.20
47350;DHT22;33088;51.982;5.872;2022-08-11T07:12:48;22.20;95.50
47350;DHT22;33088;51.982;5.872;2022-08-11T07:15:34;22.30;95.20
47350;DHT22;33088;51.982;5.872;2022-08-11T07:18:07;22.50;94.70
47350;DHT22;33088;51.982;5.872;2022-08-11T07:20:54;22.50;94.20
47350;DHT22;33088;51.982;5.872;2022-08-11T07:23:51;22.50;94.40
47350;DHT22;33088;51.982;5.872;2022-08-11T07:26:41;22.60;94.30
47350;DHT22;33088;51.982;5.872;2022-08-11T07:29:28;22.60;94.40
47350;DHT22;33088;51.982;5.872;2022-08-11T07:31:56;22.70;94.20
47350;DHT22;33088;51.982;5.872;2022-08-11T07:34:39;22.80;94.00
47350;DHT22;33088;51.982;5.872;2022-08-11T07:37:13;22.90;93.90
47350;DHT22;33088;51.982;5.872;2022-08-11T07:39:43;23.00;94.20
47350;DHT22;33088;51.982;5.872;2022-08-11T07:42:11;23.10;94.30
47350;DHT22;33088;51.982;5.872;2022-08-11T07:44:41;23.20;94.10
47350;DHT22;33088;51.982;5.872;2022-08-11T07:47:26;23.30;93.50
47350;DHT22;33088;51.982;5.872;2022-08-11T07:50:11;23.50;93.50
47350;DHT22;33088;51.982;5.872;2022-08-11T07:52:57;23.50;93.10
47350;DHT22;33088;51.982;5.872;2022-08-11T07:55:24;23.60;93.10
47350;DHT22;33088;51.982;5.872;2022-08-11T07:57:52;23.60;93.30
47350;DHT22;33088;51.982;5.872;2022-08-11T08:00:38;23.60;92.90
47350;DHT22;33088;51.982;5.872;2022-08-11T08:03:23;23.70;92.90
47350;DHT22;33088;51.982;5.872;2022-08-11T08:06:08;23.80;92.50
47350;DHT22;33088;51.982;5.872;2022-08-11T08:08:54;23.90;92.60
47350;DHT22;33088;51.982;5.872;2022-08-11T08:11:39;23.90;93.20
47350;DHT22;33088;51.982;5.872;2022-08-11T08:14:25;24.00;93.20
47350;DHT22;33088;51.982;5.872;2022-08-11T08:17:09;24.20;92.80
47350;DHT22;33088;51.982;5.872;2022-08-11T08:19:54;24.20;92.10
47350;DHT22;33088;51.982;5.872;2022-08-11T08:22:20;24.30;92.40
47350;DHT22;33088;51.982;5.872;2022-08-11T08:24:47;24.30;92.30
47350;DHT22;33088;51.982;5.872;2022-08-11T08:27:13;24.40;92.60
47350;DHT22;33088;51.982;5.872;2022-08-11T08:29:40;24.20;93.00
47350;DHT22;33088;51.982;5.872;2022-08-11T08:32:25;24.40;92.30
47350;DHT22;33088;51.982;5.872;2022-08-11T08:34:53;24.50;92.40
47350;DHT22;33088;51.982;5.872;2022-08-11T08:37:21;24.60;91.60
47350;DHT22;33088;51.982;5.872;2022-08-11T08:39:48;24.70;91.40
47350;DHT22;33088;51.982;5.872;2022-08-11T08:42:30;24.80;91.70
47350;DHT22;33088;51.982;5.872;2022-08-11T08:45:05;24.80;91.90
47350;DHT22;33088;51.982;5.872;2022-08-11T08:47:36;24.80;91.40
47350;DHT22;33088;51.982;5.872;2022-08-11T08:50:05;24.80;91.60
47350;DHT22;33088;51.982;5.872;2022-08-11T08:52:38;24.90;91.80
47350;DHT22;33088;51.982;5.872;2022-08-11T08:55:06;25.00;91.10
47350;DHT22;33088;51.982;5.872;2022-08-11T08:57:35;25.10;91.50
47350;DHT22;33088;51.982;5.872;2022-08-11T09:00:03;25.40;90.70
47350;DHT22;33088;51.982;5.872;2022-08-11T09:02:29;25.50;90.40
47350;DHT22;33088;51.982;5.872;2022-08-11T09:04:55;25.40;90.80
47350;DHT22;33088;51.982;5.872;2022-08-11T09:07:23;25.50;90.90
47350;DHT22;33088;51.982;5.872;2022-08-11T09:09:57;25.50;91.10
47350;DHT22;33088;51.982;5.872;2022-08-11T09:12:30;25.60;90.80
47350;DHT22;33088;51.982;5.872;2022-08-11T09:14:57;25.60;90.70
47350;DHT22;33088;51.982;5.872;2022-08-11T09:17:37;25.70;90.10
47350;DHT22;33088;51.982;5.872;2022-08-11T09:20:07;25.90;89.50
47350;DHT22;33088;51.982;5.872;2022-08-11T09:22:35;26.00;90.50
47350;DHT22;33088;51.982;5.872;2022-08-11T09:25:21;25.90;90.40
47350;DHT22;33088;51.982;5.872;2022-08-11T09:28:12;25.90;90.40
47350;DHT22;33088;51.982;5.872;2022-08-11T09:30:43;26.10;87.60
47350;DHT22;33088;51.982;5.872;2022-08-11T09:33:12;26.30;87.70
47350;DHT22;33088;51.982;5.872;2022-08-11T09:35:40;26.40;88.70
47350;DHT22;33088;51.982;5.872;2022-08-11T09:38:13;26.40;88.70
47350;DHT22;33088;51.982;5.872;2022-08-11T09:40:57;26.50;87.10
47350;DHT22;33088;51.982;5.872;2022-08-11T09:43:24;26.70;86.90
47350;DHT22;33088;51.982;5.872;2022-08-11T09:46:10;26.80;86.50
47350;DHT22;33088;51.982;5.872;2022-08-11T09:48:39;26.90;86.10
47350;DHT22;33088;51.982;5.872;2022-08-11T09:51:07;27.00;85.80
47350;DHT22;33088;51.982;5.872;2022-08-11T09:53:41;27.10;84.40
47350;DHT22;33088;51.982;5.872;2022-08-11T09:56:13;27.20;84.50
47350;DHT22;33088;51.982;5.872;2022-08-11T09:59:00;27.30;83.80
47350;DHT22;33088;51.982;5.872;2022-08-11T10:01:33;27.30;84.80
47350;DHT22;33088;51.982;5.872;2022-08-11T10:04:03;27.40;84.70
47350;DHT22;33088;51.982;5.872;2022-08-11T10:06:30;27.40;84.00
47350;DHT22;33088;51.982;5.872;2022-08-11T10:09:19;27.50;84.80
47350;DHT22;33088;51.982;5.872;2022-08-11T10:11:46;27.70;84.20
47350;DHT22;33088;51.982;5.872;2022-08-11T10:14:15;27.80;83.10
47350;DHT22;33088;51.982;5.872;2022-08-11T10:17:07;27.80;84.00
47350;DHT22;33088;51.982;5.872;2022-08-11T10:19:34;27.90;83.80
47350;DHT22;33088;51.982;5.872;2022-08-11T10:22:04;28.00;85.10
47350;DHT22;33088;51.982;5.872;2022-08-11T10:24:50;28.20;83.80
47350;DHT22;33088;51.982;5.872;2022-08-11T10:27:35;28.30;82.30
47350;DHT22;33088;51.982;5.872;2022-08-11T10:30:01;28.40;82.40
47350;DHT22;33088;51.982;5.872;2022-08-11T10:32:46;28.50;82.00
47350;DHT22;33088;51.982;5.872;2022-08-11T10:35:33;28.60;82.00
47350;DHT22;33088;51.982;5.872;2022-08-11T10:37:59;28.60;82.00
47350;DHT22;33088;51.982;5.872;2022-08-11T10:40:25;28.70;81.30
47350;DHT22;33088;51.982;5.872;2022-08-11T10:42:58;28.80;80.50
47350;DHT22;33088;51.982;5.872;2022-08-11T10:45:34;28.80;81.00
47350;DHT22;33088;51.982;5.872;2022-08-11T10:48:20;29.00;80.80
47350;DHT22;33088;51.982;5.872;2022-08-11T10:50:47;29.00;80.80
47350;DHT22;33088;51.982;5.872;2022-08-11T10:53:34;29.10;80.80
47350;DHT22;33088;51.982;5.872;2022-08-11T10:56:19;29.10;80.70
47350;DHT22;33088;51.982;5.872;2022-08-11T10:59:06;29.20;79.20
47350;DHT22;33088;51.982;5.872;2022-08-11T11:01:39;29.40;79.80
47350;DHT22;33088;51.982;5.872;2022-08-11T11:04:12;29.50;79.00
47350;DHT22;33088;51.982;5.872;2022-08-11T11:06:48;29.50;79.50
47350;DHT22;33088;51.982;5.872;2022-08-11T11:09:27;29.70;79.60
47350;DHT22;33088;51.982;5.872;2022-08-11T11:11:59;29.90;78.20
47350;DHT22;33088;51.982;5.872;2022-08-11T11:14:44;30.10;78.40
47350;DHT22;33088;51.982;5.872;2022-08-11T11:17:36;30.10;77.20
47350;DHT22;33088;51.982;5.872;2022-08-11T11:20:44;29.90;78.90
47350;DHT22;33088;51.982;5.872;2022-08-11T11:29:06;30.30;78.00
47350;DHT22;33088;51.982;5.872;2022-08-11T11:36:56;30.50;76.10
47350;DHT22;33088;51.982;5.872;2022-08-11T11:39:24;30.70;76.20
47350;DHT22;33088;51.982;5.872;2022-08-11T11:41:52;30.80;74.90
47350;DHT22;33088;51.982;5.872;2022-08-11T11:44:20;30.80;75.90
47350;DHT22;33088;51.982;5.872;2022-08-11T11:46:47;30.90;75.20
47350;DHT22;33088;51.982;5.872;2022-08-11T11:49:16;30.90;74.40
47350;DHT22;33088;51.982;5.872;2022-08-11T11:51:45;31.00;75.60
47350;DHT22;33088;51.982;5.872;2022-08-11T11:54:14;31.10;75.40
47350;DHT22;33088;51.982;5.872;2022-08-11T11:56:41;31.20;74.60
47350;DHT22;33088;51.982;5.872;2022-08-11T11:59:08;31.20;73.90
47350;DHT22;33088;51.982;5.872;2022-08-11T12:01:54;31.20;72.70
47350;DHT22;33088;51.982;5.872;2022-08-11T12:04:21;31.10;72.20
47350;DHT22;33088;51.982;5.872;2022-08-11T12:06:48;31.10;72.70
47350;DHT22;33088;51.982;5.872;2022-08-11T12:09:14;31.20;72.80
47350;DHT22;33088;51.982;5.872;2022-08-11T12:11:48;31.40;73.20
47350;DHT22;33088;51.982;5.872;2022-08-11T12:14:33;31.40;73.60
47350;DHT22;33088;51.982;5.872;2022-08-11T12:17:01;31.50;74.30
47350;DHT22;33088;51.982;5.872;2022-08-11T12:19:27;31.70;75.10
47350;DHT22;33088;51.982;5.872;2022-08-11T12:21:56;31.80;72.90
47350;DHT22;33088;51.982;5.872;2022-08-11T12:24:42;31.70;70.90
47350;DHT22;33088;51.982;5.872;2022-08-11T12:27:29;31.70;71.70
47350;DHT22;33088;51.982;5.872;2022-08-11T12:30:00;31.60;71.10
47350;DHT22;33088;51.982;5.872;2022-08-11T12:32:32;31.60;70.20
47350;DHT22;33088;51.982;5.872;2022-08-11T12:34:59;31.50;70.60
47350;DHT22;33088;51.982;5.872;2022-08-11T12:37:54;31.50;71.70
47350;DHT22;33088;51.982;5.872;2022-08-11T12:40:30;31.60;72.20
47350;DHT22;33088;51.982;5.872;2022-08-11T12:43:17;31.40;70.80
47350;DHT22;33088;51.982;5.872;2022-08-11T12:46:08;31.30;71.80
47350;DHT22;33088;51.982;5.872;2022-08-11T12:48:43;31.30;70.60
47350;DHT22;33088;51.982;5.872;2022-08-11T12:51:36;31.50;69.20
47350;DHT22;33088;51.982;5.872;2022-08-11T12:57:09;31.50;67.90
47350;DHT22;33088;51.982;5.872;2022-08-11T12:59:55;31.60;69.40
47350;DHT22;33088;51.982;5.872;2022-08-11T13:02:40;31.70;70.00
47350;DHT22;33088;51.982;5.872;2022-08-11T13:05:25;31.90;70.50
47350;DHT22;33088;51.982;5.872;2022-08-11T13:07:51;31.80;68.00
47350;DHT22;33088;51.982;5.872;2022-08-11T13:10:18;31.70;69.30
47350;DHT22;33088;51.982;5.872;2022-08-11T13:13:06;31.70;70.10
47350;DHT22;33088;51.982;5.872;2022-08-11T13:15:32;31.70;68.30
47350;DHT22;33088;51.982;5.872;2022-08-11T13:18:01;31.70;70.10
47350;DHT22;33088;51.982;5.872;2022-08-11T13:20:28;31.80;70.20
47350;DHT22;33088;51.982;5.872;2022-08-11T13:22:56;32.00;68.50
47350;DHT22;33088;51.982;5.872;2022-08-11T13:25:26;31.90;67.30
47350;DHT22;33088;51.982;5.872;2022-08-11T13:27:56;31.80;67.40
47350;DHT22;33088;51.982;5.872;2022-08-11T13:30:27;31.70;67.30
47350;DHT22;33088;51.982;5.872;2022-08-11T13:33:12;31.80;69.00
47350;DHT22;33088;51.982;5.872;2022-08-11T13:35:45;32.00;68.10
47350;DHT22;33088;51.982;5.872;2022-08-11T13:38:15;32.20;68.00
47350;DHT22;33088;51.982;5.872;2022-08-11T13:40:42;32.20;68.60
47350;DHT22;33088;51.982;5.872;2022-08-11T13:43:09;32.10;67.50
47350;DHT22;33088;51.982;5.872;2022-08-11T13:45:36;32.20;68.40
47350;DHT22;33088;51.982;5.872;2022-08-11T13:48:07;32.20;68.80
47350;DHT22;33088;51.982;5.872;2022-08-11T13:50:34;32.10;67.10
47350;DHT22;33088;51.982;5.872;2022-08-11T13:53:25;32.10;68.10
47350;DHT22;33088;51.982;5.872;2022-08-11T13:55:52;32.30;67.90
47350;DHT22;33088;51.982;5.872;2022-08-11T13:58:19;32.20;67.20
47350;DHT22;33088;51.982;5.872;2022-08-11T14:00:49;32.10;66.90
47350;DHT22;33088;51.982;5.872;2022-08-11T14:03:18;32.10;68.40
47350;DHT22;33088;51.982;5.872;2022-08-11T14:05:50;32.20;67.60
47350;DHT22;33088;51.982;5.872;2022-08-11T14:08:20;32.00;66.50
47350;DHT22;33088;51.982;5.872;2022-08-11T14:10:49;32.00;66.60
47350;DHT22;33088;51.982;5.872;2022-08-11T14:13:38;32.10;67.00
47350;DHT22;33088;51.982;5.872;2022-08-11T14:16:32;32.10;67.00
47350;DHT22;33088;51.982;5.872;2022-08-11T14:19:00;32.10;68.60
47350;DHT22;33088;51.982;5.872;2022-08-11T14:21:27;32.10;66.80
47350;DHT22;33088;51.982;5.872;2022-08-11T14:24:15;32.10;67.90
47350;DHT22;33088;51.982;5.872;2022-08-11T14:26:42;32.10;65.70
47350;DHT22;33088;51.982;5.872;2022-08-11T14:29:16;32.20;67.10
47350;DHT22;33088;51.982;5.872;2022-08-11T14:31:49;32.20;67.90
47350;DHT22;33088;51.982;5.872;2022-08-11T14:34:18;32.20;67.50
47350;DHT22;33088;51.982;5.872;2022-08-11T14:36:57;32.30;65.70
47350;DHT22;33088;51.982;5.872;2022-08-11T14:39:24;32.30;65.60
47350;DHT22;33088;51.982;5.872;2022-08-11T14:41:56;32.20;66.50
47350;DHT22;33088;51.982;5.872;2022-08-11T14:44:43;32.20;67.70
47350;DHT22;33088;51.982;5.872;2022-08-11T14:47:30;32.30;67.10
47350;DHT22;33088;51.982;5.872;2022-08-11T14:49:58;32.30;67.00
47350;DHT22;33088;51.982;5.872;2022-08-11T14:52:25;32.20;67.60
47350;DHT22;33088;51.982;5.872;2022-08-11T14:54:52;32.00;65.80
47350;DHT22;33088;51.982;5.872;2022-08-11T14:57:38;31.80;67.70
47350;DHT22;33088;51.982;5.872;2022-08-11T15:00:07;31.80;67.00
47350;DHT22;33088;51.982;5.872;2022-08-11T15:02:36;31.90;66.50
47350;DHT22;33088;51.982;5.872;2022-08-11T15:05:51;31.90;67.00
47350;DHT22;33088;51.982;5.872;2022-08-11T15:08:19;31.80;66.20
47350;DHT22;33088;51.982;5.872;2022-08-11T15:11:06;31.80;65.90
47350;DHT22;33088;51.982;5.872;2022-08-11T15:13:52;31.70;66.80
47350;DHT22;33088;51.982;5.872;2022-08-11T15:16:20;31.80;67.60
47350;DHT22;33088;51.982;5.872;2022-08-11T15:19:05;31.80;66.20
47350;DHT22;33088;51.982;5.872;2022-08-11T15:21:31;31.80;66.30
47350;DHT22;33088;51.982;5.872;2022-08-11T15:24:15;31.70;66.20
47350;DHT22;33088;51.982;5.872;2022-08-11T15:26:46;31.80;66.00
47350;DHT22;33088;51.982;5.872;2022-08-11T15:29:34;31.90;65.80
47350;DHT22;33088;51.982;5.872;2022-08-11T15:32:21;31.90;66.30
47350;DHT22;33088;51.982;5.872;2022-08-11T15:34:59;31.80;65.20
47350;DHT22;33088;51.982;5.872;2022-08-11T15:37:46;31.70;65.40
47350;DHT22;33088;51.982;5.872;2022-08-11T15:40:21;31.70;66.10
47350;DHT22;33088;51.982;5.872;2022-08-11T15:43:18;31.80;67.20
47350;DHT22;33088;51.982;5.872;2022-08-11T15:46:21;31.70;65.80
47350;DHT22;33088;51.982;5.872;2022-08-11T15:48:55;31.70;66.10
47350;DHT22;33088;51.982;5.872;2022-08-11T15:54:04;31.70;65.90
47350;DHT22;33088;51.982;5.872;2022-08-11T15:56:31;31.70;65.20
47350;DHT22;33088;51.982;5.872;2022-08-11T15:58:59;31.60;64.80
47350;DHT22;33088;51.982;5.872;2022-08-11T16:01:44;31.50;65.80
47350;DHT22;33088;51.982;5.872;2022-08-11T16:04:31;31.50;66.70
47350;DHT22;33088;51.982;5.872;2022-08-11T16:07:24;31.50;65.80
47350;DHT22;33088;51.982;5.872;2022-08-11T16:12:28;31.30;65.30
47350;DHT22;33088;51.982;5.872;2022-08-11T16:15:01;31.30;65.80
47350;DHT22;33088;51.982;5.872;2022-08-11T16:17:50;31.30;66.20
47350;DHT22;33088;51.982;5.872;2022-08-11T16:20:23;31.30;66.20
47350;DHT22;33088;51.982;5.872;2022-08-11T16:22:53;31.40;65.60
47350;DHT22;33088;51.982;5.872;2022-08-11T16:25:21;31.30;66.50
47350;DHT22;33088;51.982;5.872;2022-08-11T16:27:55;31.30;66.20
47350;DHT22;33088;51.982;5.872;2022-08-11T16:30:25;31.30;66.30
47350;DHT22;33088;51.982;5.872;2022-08-11T16:32:53;31.30;66.60
47350;DHT22;33088;51.982;5.872;2022-08-11T16:35:23;31.30;66.20
47350;DHT22;33088;51.982;5.872;2022-08-11T16:38:09;31.30;67.20
47350;DHT22;33088;51.982;5.872;2022-08-11T16:40:56;31.30;67.40
47350;DHT22;33088;51.982;5.872;2022-08-11T16:43:26;31.30;67.00
47350;DHT22;33088;51.982;5.872;2022-08-11T16:46:16;31.30;67.10
47350;DHT22;33088;51.982;5.872;2022-08-11T16:49:07;31.30;67.30
47350;DHT22;33088;51.982;5.872;2022-08-11T16:51:33;31.30;67.00
47350;DHT22;33088;51.982;5.872;2022-08-11T16:53:59;31.30;66.80
47350;DHT22;33088;51.982;5.872;2022-08-11T16:59:01;31.10;67.40
47350;DHT22;33088;51.982;5.872;2022-08-11T17:01:45;31.00;67.60
47350;DHT22;33088;51.982;5.872;2022-08-11T17:04:35;31.00;67.20
47350;DHT22;33088;51.982;5.872;2022-08-11T17:07:23;31.00;68.90
47350;DHT22;33088;51.982;5.872;2022-08-11T17:10:14;31.00;67.50
47350;DHT22;33088;51.982;5.872;2022-08-11T17:13:00;31.00;67.90
47350;DHT22;33088;51.982;5.872;2022-08-11T17:15:45;31.00;68.40
47350;DHT22;33088;51.982;5.872;2022-08-11T17:18:32;31.00;66.90
47350;DHT22;33088;51.982;5.872;2022-08-11T17:21:06;30.80;67.70
47350;DHT22;33088;51.982;5.872;2022-08-11T17:23:34;30.80;67.60
47350;DHT22;33088;51.982;5.872;2022-08-11T17:28:53;30.60;67.30
47350;DHT22;33088;51.982;5.872;2022-08-11T17:31:22;30.60;67.30
47350;DHT22;33088;51.982;5.872;2022-08-11T17:34:10;30.60;67.00
47350;DHT22;33088;51.982;5.872;2022-08-11T17:36:56;30.60;66.20
47350;DHT22;33088;51.982;5.872;2022-08-11T17:39:27;30.70;66.40
47350;DHT22;33088;51.982;5.872;2022-08-11T17:41:54;30.80;65.70
47350;DHT22;33088;51.982;5.872;2022-08-11T17:44:39;30.80;66.00
47350;DHT22;33088;51.982;5.872;2022-08-11T17:47:25;30.80;66.00
47350;DHT22;33088;51.982;5.872;2022-08-11T17:50:11;30.80;66.60
47350;DHT22;33088;51.982;5.872;2022-08-11T17:52:40;30.70;65.50
47350;DHT22;33088;51.982;5.872;2022-08-11T17:55:26;30.60;65.60
47350;DHT22;33088;51.982;5.872;2022-08-11T17:58:12;30.40;65.80
47350;DHT22;33088;51.982;5.872;2022-08-11T18:00:58;30.30;66.40
47350;DHT22;33088;51.982;5.872;2022-08-11T18:03:25;30.20;66.40
47350;DHT22;33088;51.982;5.872;2022-08-11T18:05:59;30.10;67.20
47350;DHT22;33088;51.982;5.872;2022-08-11T18:08:28;29.90;66.40
47350;DHT22;33088;51.982;5.872;2022-08-11T18:11:14;29.80;66.90
47350;DHT22;33088;51.982;5.872;2022-08-11T18:14:04;29.60;67.20
47350;DHT22;33088;51.982;5.872;2022-08-11T18:16:49;29.50;67.40
47350;DHT22;33088;51.982;5.872;2022-08-11T18:19:34;29.40;68.00
47350;DHT22;33088;51.982;5.872;2022-08-11T18:22:23;29.30;68.40
47350;DHT22;33088;51.982;5.872;2022-08-11T18:25:15;29.20;67.80
47350;DHT22;33088;51.982;5.872;2022-08-11T18:28:04;29.10;68.60
47350;DHT22;33088;51.982;5.872;2022-08-11T18:30:50;29.00;68.40
47350;DHT22;33088;51.982;5.872;2022-08-11T18:33:43;28.90;68.20
47350;DHT22;33088;51.982;5.872;2022-08-11T18:36:30;28.90;69.20
47350;DHT22;33088;51.982;5.872;2022-08-11T18:39:19;28.80;68.80
47350;DHT22;33088;51.982;5.872;2022-08-11T18:42:13;28.70;69.00
47350;DHT22;33088;51.982;5.872;2022-08-11T18:45:04;28.60;69.60
47350;DHT22;33088;51.982;5.872;2022-08-11T18:47:51;28.60;69.00
47350;DHT22;33088;51.982;5.872;2022-08-11T18:50:41;28.40;69.20
47350;DHT22;33088;51.982;5.872;2022-08-11T18:53:27;28.40;69.10
47350;DHT22;33088;51.982;5.872;2022-08-11T18:56:14;28.30;69.60
47350;DHT22;33088;51.982;5.872;2022-08-11T18:59:02;28.20;69.70
47350;DHT22;33088;51.982;5.872;2022-08-11T19:01:48;28.10;69.80
47350;DHT22;33088;51.982;5.872;2022-08-11T19:04:34;28.00;70.30
47350;DHT22;33088;51.982;5.872;2022-08-11T19:07:19;28.00;70.70
47350;DHT22;33088;51.982;5.872;2022-08-11T19:10:04;27.80;70.50
47350;DHT22;33088;51.982;5.872;2022-08-11T19:12:48;27.80;71.00
47350;DHT22;33088;51.982;5.872;2022-08-11T19:15:34;27.70;70.90
47350;DHT22;33088;51.982;5.872;2022-08-11T19:18:21;27.60;70.80
47350;DHT22;33088;51.982;5.872;2022-08-11T19:21:07;27.50;71.10
47350;DHT22;33088;51.982;5.872;2022-08-11T19:23:57;27.40;71.00
47350;DHT22;33088;51.982;5.872;2022-08-11T19:26:43;27.40;71.30
47350;DHT22;33088;51.982;5.872;2022-08-11T19:29:29;27.30;71.40
47350;DHT22;33088;51.982;5.872;2022-08-11T19:32:14;27.30;71.00
47350;DHT22;33088;51.982;5.872;2022-08-11T19:35:00;27.20;72.50
47350;DHT22;33088;51.982;5.872;2022-08-11T19:37:46;27.10;72.70
47350;DHT22;33088;51.982;5.872;2022-08-11T19:40:32;27.10;71.90
47350;DHT22;33088;51.982;5.872;2022-08-11T19:43:18;27.00;72.70
47350;DHT22;33088;51.982;5.872;2022-08-11T19:46:06;26.90;72.60
47350;DHT22;33088;51.982;5.872;2022-08-11T19:48:52;26.80;73.20
47350;DHT22;33088;51.982;5.872;2022-08-11T19:51:38;26.70;73.10
47350;DHT22;33088;51.982;5.872;2022-08-11T19:54:25;26.70;73.30
47350;DHT22;33088;51.982;5.872;2022-08-11T19:57:10;26.70;73.10
47350;DHT22;33088;51.982;5.872;2022-08-11T19:59:55;26.60;73.10
47350;DHT22;33088;51.982;5.872;2022-08-11T20:02:41;26.50;73.60
47350;DHT22;33088;51.982;5.872;2022-08-11T20:05:25;26.40;73.10